sensor_id;sensor_type;location;lat;lon;timestamp;pressure;altitude;pressure_sealevel;temperature;humidity
25420;BME280;13354;48.174;11.566;2023-05-07T00:01:45;95651.81;;;15.32;81.78
25420;BME280;13354;48.174;11.566;2023-05-07T00:04:11;95648.41;;;15.43;80.97
25420;BME280;13354;48.174;11.566;2023-05-07T00:06:36;95650.84;;;15.45;80.91
25420;BME280;13354;48.174;11.566;2023-05-07T00:09:01;95647.66;;;15.36;81.14
25420;BME280;13354;48.174;11.566;2023-05-07T00:11:27;95647.97;;;15.28;81.75
25420;BME280;13354;48.174;11.566;2023-05-07T00:13:52;95649.66;;;15.22;82.05
25420;BME280;13354;48.174;11.566;2023-05-07T00:16:17;95651.44;;;15.10;82.94
25420;BME280;13354;48.174;11.566;2023-05-07T00:18:43;95653.50;;;15.08;83.84
25420;BME280;13354;48.174;11.566;2023-05-07T00:21:08;95651.69;;;15.02;84.08
25420;BME280;13354;48.174;11.566;2023-05-07T00:23:33;95649.28;;;15.01;84.81
25420;BME280;13354;48.174;11.566;2023-05-07T00:25:58;95646.38;;;15.02;84.56
25420;BME280;13354;48.174;11.566;2023-05-07T00:28:23;95642.69;;;15.03;84.37
25420;BME280;13354;48.174;11.566;2023-05-07T00:30:49;95642.13;;;14.94;85.37
25420;BME280;13354;48.174;11.566;2023-05-07T00:33:14;95643.78;;;14.95;85.38
25420;BME280;13354;48.174;11.566;2023-05-07T00:35:39;95630.97;;;14.86;85.63
25420;BME280;13354;48.174;11.566;2023-05-07T00:38:04;95637.91;;;14.87;85.67
25420;BME280;13354;48.174;11.566;2023-05-07T00:40:30;95637.75;;;14.82;85.84
25420;BME280;13354;48.174;11.566;2023-05-07T00:42:55;95635.81;;;14.70;86.52
25420;BME280;13354;48.174;11.566;2023-05-07T00:45:22;95638.03;;;14.73;87.05
25420;BME280;13354;48.174;11.566;2023-05-07T00:47:48;95637.34;;;14.85;86.54
25420;BME280;13354;48.174;11.566;2023-05-07T00:50:13;95637.16;;;14.80;86.41
25420;BME280;13354;48.174;11.566;2023-05-07T00:52:38;95643.97;;;14.76;86.98
25420;BME280;13354;48.174;11.566;2023-05-07T00:55:04;95639.66;;;14.74;87.33
25420;BME280;13354;48.174;11.566;2023-05-07T00:57:32;95636.84;;;14.69;87.09
25420;BME280;13354;48.174;11.566;2023-05-07T00:59:57;95643.88;;;14.64;87.36
25420;BME280;13354;48.174;11.566;2023-05-07T01:02:22;95638.97;;;14.61;87.28
25420;BME280;13354;48.174;11.566;2023-05-07T01:04:47;95635.44;;;14.67;87.55
25420;BME280;13354;48.174;11.566;2023-05-07T01:07:13;95645.28;;;14.66;87.35
25420;BME280;13354;48.174;11.566;2023-05-07T01:09:38;95641.16;;;14.70;87.13
25420;BME280;13354;48.174;11.566;2023-05-07T01:12:04;95632.16;;;14.65;87.36
25420;BME280;13354;48.174;11.566;2023-05-07T01:14:29;95642.44;;;14.61;88.13
25420;BME280;13354;48.174;11.566;2023-05-07T01:16:55;95641.72;;;14.72;87.21
25420;BME280;13354;48.174;11.566;2023-05-07T01:19:21;95644.47;;;14.66;87.08
25420;BME280;13354;48.174;11.566;2023-05-07T01:21:46;95645.47;;;14.65;86.82
25420;BME280;13354;48.174;11.566;2023-05-07T01:24:12;95642.13;;;14.51;87.42
25420;BME280;13354;48.174;11.566;2023-05-07T01:26:38;95641.72;;;14.47;87.64
25420;BME280;13354;48.174;11.566;2023-05-07T01:29:04;95638.22;;;14.47;88.17
25420;BME280;13354;48.174;11.566;2023-05-07T01:31:29;95633.97;;;14.39;88.58
25420;BME280;13354;48.174;11.566;2023-05-07T01:33:55;95628.44;;;14.41;88.62
25420;BME280;13354;48.174;11.566;2023-05-07T01:36:22;95627.84;;;14.39;89.01
25420;BME280;13354;48.174;11.566;2023-05-07T01:38:50;95622.75;;;14.37;89.08
25420;BME280;13354;48.174;11.566;2023-05-07T01:41:16;95623.94;;;14.41;88.85
25420;BME280;13354;48.174;11.566;2023-05-07T01:43:42;95625.19;;;14.39;89.20
25420;BME280;13354;48.174;11.566;2023-05-07T01:46:07;95626.22;;;14.38;89.11
25420;BME280;13354;48.174;11.566;2023-05-07T01:48:34;95623.06;;;14.47;88.61
25420;BME280;13354;48.174;11.566;2023-05-07T01:51:00;95621.84;;;14.50;88.47
25420;BME280;13354;48.174;11.566;2023-05-07T01:53:27;95618.19;;;14.44;88.71
25420;BME280;13354;48.174;11.566;2023-05-07T01:55:52;95625.78;;;14.41;88.67
25420;BME280;13354;48.174;11.566;2023-05-07T01:58:17;95624.59;;;14.37;89.06
25420;BME280;13354;48.174;11.566;2023-05-07T02:00:42;95614.53;;;14.39;88.82
25420;BME280;13354;48.174;11.566;2023-05-07T02:03:08;95623.41;;;14.33;88.80
25420;BME280;13354;48.174;11.566;2023-05-07T02:05:33;95613.97;;;14.30;89.29
25420;BME280;13354;48.174;11.566;2023-05-07T02:07:58;95620.78;;;14.26;90.07
25420;BME280;13354;48.174;11.566;2023-05-07T02:10:23;95626.06;;;14.33;89.75
25420;BME280;13354;48.174;11.566;2023-05-07T02:12:48;95622.34;;;14.34;89.48
25420;BME280;13354;48.174;11.566;2023-05-07T02:15:14;95630.19;;;14.29;89.69
25420;BME280;13354;48.174;11.566;2023-05-07T02:17:39;95638.66;;;14.19;89.73
25420;BME280;13354;48.174;11.566;2023-05-07T02:20:22;95637.41;;;14.21;89.81
25420;BME280;13354;48.174;11.566;2023-05-07T02:22:48;95631.25;;;14.21;89.66
25420;BME280;13354;48.174;11.566;2023-05-07T02:25:13;95634.34;;;14.18;89.34
25420;BME280;13354;48.174;11.566;2023-05-07T02:27:38;95630.28;;;14.15;89.85
25420;BME280;13354;48.174;11.566;2023-05-07T02:30:03;95630.69;;;14.12;90.35
25420;BME280;13354;48.174;11.566;2023-05-07T02:32:29;95631.94;;;14.10;90.03
25420;BME280;13354;48.174;11.566;2023-05-07T02:34:54;95632.00;;;14.03;90.13
25420;BME280;13354;48.174;11.566;2023-05-07T02:37:19;95634.84;;;14.01;90.70
25420;BME280;13354;48.174;11.566;2023-05-07T02:39:44;95627.88;;;14.07;90.63
25420;BME280;13354;48.174;11.566;2023-05-07T02:42:09;95628.25;;;14.11;90.15
25420;BME280;13354;48.174;11.566;2023-05-07T02:44:35;95625.63;;;14.04;90.14
25420;BME280;13354;48.174;11.566;2023-05-07T02:47:00;95629.09;;;14.05;90.40
25420;BME280;13354;48.174;11.566;2023-05-07T02:49:25;95622.78;;;13.99;90.73
25420;BME280;13354;48.174;11.566;2023-05-07T02:51:51;95632.84;;;13.97;90.49
25420;BME280;13354;48.174;11.566;2023-05-07T02:54:16;95632.84;;;13.97;90.90
25420;BME280;13354;48.174;11.566;2023-05-07T02:56:42;95635.13;;;13.93;90.79
25420;BME280;13354;48.174;11.566;2023-05-07T02:59:07;95628.75;;;13.94;90.89
25420;BME280;13354;48.174;11.566;2023-05-07T03:01:33;95623.81;;;13.98;90.95
25420;BME280;13354;48.174;11.566;2023-05-07T03:03:58;95622.84;;;13.92;90.93
25420;BME280;13354;48.174;11.566;2023-05-07T03:06:23;95618.16;;;13.88;91.30
25420;BME280;13354;48.174;11.566;2023-05-07T03:08:48;95631.28;;;13.83;91.51
25420;BME280;13354;48.174;11.566;2023-05-07T03:11:13;95631.94;;;13.78;91.76
25420;BME280;13354;48.174;11.566;2023-05-07T03:13:39;95634.59;;;13.78;92.13
25420;BME280;13354;48.174;11.566;2023-05-07T03:16:04;95629.47;;;13.76;92.46
25420;BME280;13354;48.174;11.566;2023-05-07T03:18:30;95628.22;;;13.79;92.44
25420;BME280;13354;48.174;11.566;2023-05-07T03:20:55;95628.63;;;13.83;92.30
25420;BME280;13354;48.174;11.566;2023-05-07T03:23:20;95628.84;;;13.81;92.16
25420;BME280;13354;48.174;11.566;2023-05-07T03:25:45;95629.44;;;13.83;91.99
25420;BME280;13354;48.174;11.566;2023-05-07T03:28:11;95635.56;;;13.84;91.73
25420;BME280;13354;48.174;11.566;2023-05-07T03:30:36;95623.31;;;13.83;91.18
25420;BME280;13354;48.174;11.566;2023-05-07T03:33:01;95619.03;;;13.75;91.39
25420;BME280;13354;48.174;11.566;2023-05-07T03:35:26;95624.78;;;13.72;91.58
25420;BME280;13354;48.174;11.566;2023-05-07T03:37:51;95623.34;;;13.69;91.67
25420;BME280;13354;48.174;11.566;2023-05-07T03:40:16;95625.03;;;13.64;92.00
25420;BME280;13354;48.174;11.566;2023-05-07T03:42:42;95627.09;;;13.62;92.19
25420;BME280;13354;48.174;11.566;2023-05-07T03:45:07;95624.41;;;13.68;92.36
25420;BME280;13354;48.174;11.566;2023-05-07T03:47:33;95622.94;;;13.72;92.42
25420;BME280;13354;48.174;11.566;2023-05-07T03:49:58;95628.22;;;13.79;91.58
25420;BME280;13354;48.174;11.566;2023-05-07T03:52:24;95627.59;;;13.84;90.89
25420;BME280;13354;48.174;11.566;2023-05-07T03:54:51;95631.69;;;13.86;90.41
25420;BME280;13354;48.174;11.566;2023-05-07T03:57:16;95624.97;;;13.77;90.75
25420;BME280;13354;48.174;11.566;2023-05-07T03:59:41;95620.66;;;13.76;91.31
25420;BME280;13354;48.174;11.566;2023-05-07T04:02:06;95625.41;;;13.74;91.02
25420;BME280;13354;48.174;11.566;2023-05-07T04:04:31;95631.31;;;13.76;90.53
25420;BME280;13354;48.174;11.566;2023-05-07T04:06:57;95630.34;;;13.70;91.00
25420;BME280;13354;48.174;11.566;2023-05-07T04:09:24;95636.50;;;13.64;90.88
25420;BME280;13354;48.174;11.566;2023-05-07T04:11:50;95646.31;;;13.64;91.23
25420;BME280;13354;48.174;11.566;2023-05-07T04:14:15;95644.69;;;13.63;91.49
25420;BME280;13354;48.174;11.566;2023-05-07T04:16:40;95652.88;;;13.61;91.81
25420;BME280;13354;48.174;11.566;2023-05-07T04:19:05;95645.09;;;13.66;91.67
25420;BME280;13354;48.174;11.566;2023-05-07T04:21:31;95651.63;;;13.64;91.97
25420;BME280;13354;48.174;11.566;2023-05-07T04:23:56;95646.72;;;13.67;92.12
25420;BME280;13354;48.174;11.566;2023-05-07T04:26:21;95656.31;;;13.68;92.22
25420;BME280;13354;48.174;11.566;2023-05-07T04:28:47;95651.41;;;13.72;91.76
25420;BME280;13354;48.174;11.566;2023-05-07T04:31:12;95653.84;;;13.73;91.70
25420;BME280;13354;48.174;11.566;2023-05-07T04:33:37;95660.03;;;13.67;91.63
25420;BME280;13354;48.174;11.566;2023-05-07T04:36:02;95656.94;;;13.70;91.83
25420;BME280;13354;48.174;11.566;2023-05-07T04:38:28;95664.91;;;13.70;92.19
25420;BME280;13354;48.174;11.566;2023-05-07T04:40:54;95662.44;;;13.75;92.25
25420;BME280;13354;48.174;11.566;2023-05-07T04:43:20;95660.78;;;13.81;92.07
25420;BME280;13354;48.174;11.566;2023-05-07T04:45:45;95655.84;;;13.85;92.09
25420;BME280;13354;48.174;11.566;2023-05-07T04:48:10;95656.81;;;13.90;91.93
25420;BME280;13354;48.174;11.566;2023-05-07T04:50:36;95655.38;;;13.94;92.00
25420;BME280;13354;48.174;11.566;2023-05-07T04:53:01;95656.00;;;13.96;92.30
25420;BME280;13354;48.174;11.566;2023-05-07T04:55:26;95660.03;;;13.99;92.38
25420;BME280;13354;48.174;11.566;2023-05-07T04:57:51;95661.28;;;14.03;92.51
25420;BME280;13354;48.174;11.566;2023-05-07T05:00:17;95659.41;;;14.10;92.55
25420;BME280;13354;48.174;11.566;2023-05-07T05:02:44;95663.66;;;14.18;92.47
25420;BME280;13354;48.174;11.566;2023-05-07T05:05:09;95661.75;;;14.25;91.81
25420;BME280;13354;48.174;11.566;2023-05-07T05:07:35;95656.38;;;14.32;91.37
25420;BME280;13354;48.174;11.566;2023-05-07T05:10:01;95663.47;;;14.44;91.05
25420;BME280;13354;48.174;11.566;2023-05-07T05:12:26;95665.84;;;14.59;89.96
25420;BME280;13354;48.174;11.566;2023-05-07T05:14:51;95663.50;;;14.69;87.78
25420;BME280;13354;48.174;11.566;2023-05-07T05:17:16;95656.84;;;14.79;86.75
25420;BME280;13354;48.174;11.566;2023-05-07T05:19:41;95655.66;;;14.74;87.38
25420;BME280;13354;48.174;11.566;2023-05-07T05:22:07;95662.22;;;14.72;87.88
25420;BME280;13354;48.174;11.566;2023-05-07T05:24:32;95651.38;;;14.73;87.78
25420;BME280;13354;48.174;11.566;2023-05-07T05:26:57;95653.75;;;14.82;87.64
25420;BME280;13354;48.174;11.566;2023-05-07T05:29:24;95665.59;;;14.86;87.63
25420;BME280;13354;48.174;11.566;2023-05-07T05:31:50;95666.69;;;15.03;87.13
25420;BME280;13354;48.174;11.566;2023-05-07T05:34:15;95665.34;;;15.12;86.11
25420;BME280;13354;48.174;11.566;2023-05-07T05:36:40;95662.00;;;15.17;85.54
25420;BME280;13354;48.174;11.566;2023-05-07T05:39:05;95660.47;;;15.28;85.40
25420;BME280;13354;48.174;11.566;2023-05-07T05:41:31;95657.97;;;15.33;85.22
25420;BME280;13354;48.174;11.566;2023-05-07T05:43:56;95663.06;;;15.34;86.57
25420;BME280;13354;48.174;11.566;2023-05-07T05:46:21;95657.91;;;15.39;85.92
25420;BME280;13354;48.174;11.566;2023-05-07T05:48:46;95658.78;;;15.33;85.46
25420;BME280;13354;48.174;11.566;2023-05-07T05:51:11;95662.41;;;15.39;83.02
25420;BME280;13354;48.174;11.566;2023-05-07T05:53:37;95666.03;;;15.44;82.13
25420;BME280;13354;48.174;11.566;2023-05-07T05:56:02;95658.28;;;15.43;82.21
25420;BME280;13354;48.174;11.566;2023-05-07T05:58:27;95665.91;;;15.39;82.11
25420;BME280;13354;48.174;11.566;2023-05-07T06:00:52;95660.41;;;15.53;81.75
25420;BME280;13354;48.174;11.566;2023-05-07T06:03:18;95665.06;;;15.57;81.32
25420;BME280;13354;48.174;11.566;2023-05-07T06:05:43;95662.19;;;15.59;80.60
25420;BME280;13354;48.174;11.566;2023-05-07T06:08:08;95663.38;;;15.63;80.85
25420;BME280;13354;48.174;11.566;2023-05-07T06:10:35;95663.63;;;15.80;79.90
25420;BME280;13354;48.174;11.566;2023-05-07T06:13:00;95665.91;;;15.58;81.35
25420;BME280;13354;48.174;11.566;2023-05-07T06:15:25;95666.56;;;15.72;80.79
25420;BME280;13354;48.174;11.566;2023-05-07T06:17:50;95662.41;;;15.76;80.95
25420;BME280;13354;48.174;11.566;2023-05-07T06:20:16;95666.19;;;15.86;80.63
25420;BME280;13354;48.174;11.566;2023-05-07T06:22:41;95662.94;;;15.84;80.84
25420;BME280;13354;48.174;11.566;2023-05-07T06:25:06;95665.41;;;15.98;80.57
25420;BME280;13354;48.174;11.566;2023-05-07T06:27:32;95667.19;;;16.04;80.22
25420;BME280;13354;48.174;11.566;2023-05-07T06:29:57;95665.91;;;16.36;78.86
25420;BME280;13354;48.174;11.566;2023-05-07T06:32:22;95659.41;;;16.32;78.59
25420;BME280;13354;48.174;11.566;2023-05-07T06:34:47;95658.16;;;16.47;77.21
25420;BME280;13354;48.174;11.566;2023-05-07T06:37:12;95660.28;;;16.68;75.91
25420;BME280;13354;48.174;11.566;2023-05-07T06:39:37;95660.31;;;17.15;74.79
25420;BME280;13354;48.174;11.566;2023-05-07T06:42:03;95660.81;;;18.16;71.32
25420;BME280;13354;48.174;11.566;2023-05-07T06:44:29;95662.50;;;18.96;68.58
25420;BME280;13354;48.174;11.566;2023-05-07T06:46:54;95665.16;;;20.45;62.01
25420;BME280;13354;48.174;11.566;2023-05-07T06:49:19;95672.75;;;21.50;57.86
25420;BME280;13354;48.174;11.566;2023-05-07T06:51:45;95672.00;;;22.17;54.78
25420;BME280;13354;48.174;11.566;2023-05-07T06:54:10;95669.16;;;23.26;51.91
25420;BME280;13354;48.174;11.566;2023-05-07T06:56:35;95667.34;;;24.01;50.66
25420;BME280;13354;48.174;11.566;2023-05-07T06:59:01;95666.75;;;24.64;48.45
25420;BME280;13354;48.174;11.566;2023-05-07T07:01:26;95672.66;;;25.40;46.05
25420;BME280;13354;48.174;11.566;2023-05-07T07:03:51;95671.50;;;26.42;44.14
25420;BME280;13354;48.174;11.566;2023-05-07T07:06:17;95668.94;;;27.54;42.58
25420;BME280;13354;48.174;11.566;2023-05-07T07:08:42;95665.38;;;27.86;41.06
25420;BME280;13354;48.174;11.566;2023-05-07T07:11:08;95669.19;;;28.12;40.24
25420;BME280;13354;48.174;11.566;2023-05-07T07:13:33;95667.81;;;28.65;39.47
25420;BME280;13354;48.174;11.566;2023-05-07T07:15:59;95666.84;;;28.33;38.73
25420;BME280;13354;48.174;11.566;2023-05-07T07:18:24;95669.28;;;27.93;39.51
25420;BME280;13354;48.174;11.566;2023-05-07T07:20:50;95668.94;;;28.86;38.51
25420;BME280;13354;48.174;11.566;2023-05-07T07:23:15;95663.97;;;29.02;38.67
25420;BME280;13354;48.174;11.566;2023-05-07T07:25:40;95665.03;;;28.79;38.92
25420;BME280;13354;48.174;11.566;2023-05-07T07:28:06;95666.63;;;29.16;38.96
25420;BME280;13354;48.174;11.566;2023-05-07T07:30:31;95669.03;;;28.95;38.67
25420;BME280;13354;48.174;11.566;2023-05-07T07:32:56;95669.75;;;28.87;38.12
25420;BME280;13354;48.174;11.566;2023-05-07T07:35:27;95680.22;;;28.94;37.96
25420;BME280;13354;48.174;11.566;2023-05-07T07:37:52;95674.00;;;28.29;38.21
25420;BME280;13354;48.174;11.566;2023-05-07T07:40:17;95673.09;;;28.84;38.87
25420;BME280;13354;48.174;11.566;2023-05-07T07:42:43;95679.03;;;28.50;38.66
25420;BME280;13354;48.174;11.566;2023-05-07T07:45:08;95682.88;;;27.80;40.25
25420;BME280;13354;48.174;11.566;2023-05-07T07:47:33;95686.44;;;27.80;40.87
25420;BME280;13354;48.174;11.566;2023-05-07T07:49:58;95684.91;;;28.02;40.22
25420;BME280;13354;48.174;11.566;2023-05-07T07:52:24;95682.31;;;27.36;40.34
25420;BME280;13354;48.174;11.566;2023-05-07T07:54:49;95682.91;;;27.33;41.26
25420;BME280;13354;48.174;11.566;2023-05-07T07:57:14;95683.78;;;26.77;42.34
25420;BME280;13354;48.174;11.566;2023-05-07T07:59:40;95681.94;;;26.72;42.46
25420;BME280;13354;48.174;11.566;2023-05-07T08:02:05;95682.75;;;26.92;42.78
25420;BME280;13354;48.174;11.566;2023-05-07T08:04:30;95685.66;;;25.96;44.37
25420;BME280;13354;48.174;11.566;2023-05-07T08:06:58;95682.00;;;26.06;43.20
25420;BME280;13354;48.174;11.566;2023-05-07T08:09:23;95684.47;;;25.78;45.21
25420;BME280;13354;48.174;11.566;2023-05-07T08:11:48;95686.19;;;25.69;44.78
25420;BME280;13354;48.174;11.566;2023-05-07T08:14:13;95683.94;;;25.23;45.61
25420;BME280;13354;48.174;11.566;2023-05-07T08:16:40;95683.00;;;25.33;45.25
25420;BME280;13354;48.174;11.566;2023-05-07T08:19:05;95687.47;;;25.18;46.32
25420;BME280;13354;48.174;11.566;2023-05-07T08:21:31;95693.41;;;24.86;46.76
25420;BME280;13354;48.174;11.566;2023-05-07T08:23:56;95692.53;;;24.51;46.60
25420;BME280;13354;48.174;11.566;2023-05-07T08:26:21;95687.13;;;24.51;47.92
25420;BME280;13354;48.174;11.566;2023-05-07T08:28:47;95688.06;;;24.21;48.40
25420;BME280;13354;48.174;11.566;2023-05-07T08:31:12;95689.06;;;24.46;48.14
25420;BME280;13354;48.174;11.566;2023-05-07T08:33:37;95686.38;;;24.41;48.21
25420;BME280;13354;48.174;11.566;2023-05-07T08:36:03;95688.69;;;24.63;48.48
25420;BME280;13354;48.174;11.566;2023-05-07T08:38:28;95689.34;;;24.44;48.80
25420;BME280;13354;48.174;11.566;2023-05-07T08:40:54;95688.22;;;24.50;46.96
25420;BME280;13354;48.174;11.566;2023-05-07T08:43:19;95682.03;;;24.45;48.66
25420;BME280;13354;48.174;11.566;2023-05-07T08:45:45;95689.28;;;24.54;49.01
25420;BME280;13354;48.174;11.566;2023-05-07T08:48:16;95686.72;;;24.73;49.10
25420;BME280;13354;48.174;11.566;2023-05-07T08:50:42;95688.81;;;24.81;48.78
25420;BME280;13354;48.174;11.566;2023-05-07T08:53:07;95690.03;;;24.65;48.79
25420;BME280;13354;48.174;11.566;2023-05-07T08:55:32;95694.59;;;24.15;49.27
25420;BME280;13354;48.174;11.566;2023-05-07T08:57:58;95689.38;;;24.29;49.32
25420;BME280;13354;48.174;11.566;2023-05-07T09:00:24;95693.28;;;24.67;49.96
25420;BME280;13354;48.174;11.566;2023-05-07T09:02:49;95696.06;;;24.52;49.32
25420;BME280;13354;48.174;11.566;2023-05-07T09:05:14;95695.22;;;24.56;49.63
25420;BME280;13354;48.174;11.566;2023-05-07T09:07:39;95694.50;;;24.41;48.60
25420;BME280;13354;48.174;11.566;2023-05-07T09:10:05;95698.03;;;24.86;48.77
25420;BME280;13354;48.174;11.566;2023-05-07T09:12:30;95689.91;;;25.20;47.92
25420;BME280;13354;48.174;11.566;2023-05-07T09:14:56;95693.03;;;25.37;47.79
25420;BME280;13354;48.174;11.566;2023-05-07T09:17:21;95690.47;;;25.75;46.22
25420;BME280;13354;48.174;11.566;2023-05-07T09:19:46;95683.41;;;25.21;45.71
25420;BME280;13354;48.174;11.566;2023-05-07T09:22:12;95689.13;;;25.14;46.86
25420;BME280;13354;48.174;11.566;2023-05-07T09:24:38;95691.28;;;24.78;46.36
25420;BME280;13354;48.174;11.566;2023-05-07T09:27:03;95694.88;;;25.08;46.05
25420;BME280;13354;48.174;11.566;2023-05-07T09:29:29;95682.59;;;24.81;44.40
25420;BME280;13354;48.174;11.566;2023-05-07T09:31:55;95685.22;;;24.57;44.13
25420;BME280;13354;48.174;11.566;2023-05-07T09:34:20;95684.81;;;24.24;44.99
25420;BME280;13354;48.174;11.566;2023-05-07T09:36:46;95679.06;;;24.36;46.41
25420;BME280;13354;48.174;11.566;2023-05-07T09:39:11;95674.47;;;24.37;45.97
25420;BME280;13354;48.174;11.566;2023-05-07T09:41:44;95679.91;;;24.31;46.27
25420;BME280;13354;48.174;11.566;2023-05-07T09:44:10;95678.25;;;24.46;46.38
25420;BME280;13354;48.174;11.566;2023-05-07T09:46:36;95679.38;;;24.79;45.73
25420;BME280;13354;48.174;11.566;2023-05-07T09:49:02;95679.09;;;24.80;45.38
25420;BME280;13354;48.174;11.566;2023-05-07T09:51:33;95665.97;;;24.64;43.89
25420;BME280;13354;48.174;11.566;2023-05-07T09:53:58;95672.00;;;24.85;45.07
25420;BME280;13354;48.174;11.566;2023-05-07T09:56:26;95670.41;;;25.18;43.05
25420;BME280;13354;48.174;11.566;2023-05-07T09:58:52;95673.34;;;24.87;41.21
25420;BME280;13354;48.174;11.566;2023-05-07T10:01:18;95676.31;;;25.25;42.51
25420;BME280;13354;48.174;11.566;2023-05-07T10:03:47;95668.41;;;25.87;41.93
25420;BME280;13354;48.174;11.566;2023-05-07T10:06:14;95679.50;;;25.61;39.52
25420;BME280;13354;48.174;11.566;2023-05-07T10:08:40;95674.28;;;25.12;40.91
25420;BME280;13354;48.174;11.566;2023-05-07T10:11:07;95676.88;;;25.51;42.67
25420;BME280;13354;48.174;11.566;2023-05-07T10:13:33;95678.06;;;25.11;40.92
25420;BME280;13354;48.174;11.566;2023-05-07T10:16:03;95677.19;;;25.20;41.32
25420;BME280;13354;48.174;11.566;2023-05-07T10:18:29;95675.50;;;25.53;40.87
25420;BME280;13354;48.174;11.566;2023-05-07T10:20:59;95683.25;;;25.65;41.61
25420;BME280;13354;48.174;11.566;2023-05-07T10:23:26;95673.38;;;25.21;37.43
25420;BME280;13354;48.174;11.566;2023-05-07T10:25:52;95673.59;;;25.25;39.44
25420;BME280;13354;48.174;11.566;2023-05-07T10:28:19;95673.78;;;25.04;37.08
25420;BME280;13354;48.174;11.566;2023-05-07T10:30:48;95678.00;;;24.81;38.10
25420;BME280;13354;48.174;11.566;2023-05-07T10:33:19;95681.66;;;24.62;36.04
25420;BME280;13354;48.174;11.566;2023-05-07T10:35:47;95680.34;;;24.54;36.03
25420;BME280;13354;48.174;11.566;2023-05-07T10:38:12;95681.75;;;24.46;38.21
25420;BME280;13354;48.174;11.566;2023-05-07T10:40:38;95676.97;;;24.72;39.83
25420;BME280;13354;48.174;11.566;2023-05-07T10:43:04;95676.13;;;24.82;37.06
25420;BME280;13354;48.174;11.566;2023-05-07T10:45:32;95676.78;;;25.32;38.64
25420;BME280;13354;48.174;11.566;2023-05-07T10:48:18;95675.97;;;25.90;38.36
25420;BME280;13354;48.174;11.566;2023-05-07T10:50:44;95683.91;;;25.81;35.93
25420;BME280;13354;48.174;11.566;2023-05-07T10:55:41;95672.56;;;25.79;38.35
25420;BME280;13354;48.174;11.566;2023-05-07T11:03:12;95685.69;;;25.67;38.89
25420;BME280;13354;48.174;11.566;2023-05-07T11:05:39;95675.75;;;25.81;38.50
25420;BME280;13354;48.174;11.566;2023-05-07T11:08:05;95677.75;;;25.46;38.94
25420;BME280;13354;48.174;11.566;2023-05-07T11:10:49;95672.47;;;25.84;39.95
25420;BME280;13354;48.174;11.566;2023-05-07T11:13:15;95672.94;;;25.67;40.06
25420;BME280;13354;48.174;11.566;2023-05-07T11:15:42;95678.84;;;25.69;41.87
25420;BME280;13354;48.174;11.566;2023-05-07T11:18:09;95675.09;;;25.41;39.36
25420;BME280;13354;48.174;11.566;2023-05-07T11:20:47;95678.28;;;25.19;39.32
25420;BME280;13354;48.174;11.566;2023-05-07T11:23:54;95666.03;;;25.22;41.30
25420;BME280;13354;48.174;11.566;2023-05-07T11:26:06;95668.28;;;25.15;41.33
25420;BME280;13354;48.174;11.566;2023-05-07T11:28:36;95665.91;;;25.37;42.34
25420;BME280;13354;48.174;11.566;2023-05-07T11:31:02;95659.63;;;25.66;43.53
25420;BME280;13354;48.174;11.566;2023-05-07T11:33:27;95662.22;;;26.24;40.19
25420;BME280;13354;48.174;11.566;2023-05-07T11:35:53;95668.44;;;26.67;41.58
25420;BME280;13354;48.174;11.566;2023-05-07T11:38:18;95662.56;;;26.79;39.53
25420;BME280;13354;48.174;11.566;2023-05-07T11:40:50;95655.78;;;27.14;40.26
25420;BME280;13354;48.174;11.566;2023-05-07T11:43:16;95652.66;;;27.21;37.74
25420;BME280;13354;48.174;11.566;2023-05-07T11:45:41;95652.31;;;27.09;37.43
25420;BME280;13354;48.174;11.566;2023-05-07T11:48:07;95653.88;;;26.96;37.52
25420;BME280;13354;48.174;11.566;2023-05-07T11:50:32;95652.88;;;26.92;39.27
25420;BME280;13354;48.174;11.566;2023-05-07T11:52:57;95652.88;;;27.25;37.91
25420;BME280;13354;48.174;11.566;2023-05-07T11:55:25;95657.06;;;27.17;37.00
25420;BME280;13354;48.174;11.566;2023-05-07T11:57:51;95653.88;;;27.15;38.58
25420;BME280;13354;48.174;11.566;2023-05-07T12:00:16;95663.41;;;26.93;38.02
25420;BME280;13354;48.174;11.566;2023-05-07T12:02:42;95647.66;;;26.39;37.33
25420;BME280;13354;48.174;11.566;2023-05-07T12:05:07;95657.34;;;26.45;37.48
25420;BME280;13354;48.174;11.566;2023-05-07T12:07:35;95651.50;;;26.33;37.60
25420;BME280;13354;48.174;11.566;2023-05-07T12:10:05;95650.56;;;26.23;38.06
25420;BME280;13354;48.174;11.566;2023-05-07T12:12:30;95643.59;;;26.17;38.73
25420;BME280;13354;48.174;11.566;2023-05-07T12:14:56;95647.16;;;25.94;38.54
25420;BME280;13354;48.174;11.566;2023-05-07T12:17:21;95636.69;;;25.58;39.53
25420;BME280;13354;48.174;11.566;2023-05-07T12:19:47;95630.00;;;25.50;38.67
25420;BME280;13354;48.174;11.566;2023-05-07T12:22:12;95641.88;;;25.30;39.23
25420;BME280;13354;48.174;11.566;2023-05-07T12:24:47;95634.13;;;25.19;40.69
25420;BME280;13354;48.174;11.566;2023-05-07T12:27:13;95632.47;;;25.47;40.83
25420;BME280;13354;48.174;11.566;2023-05-07T12:29:38;95632.44;;;25.52;40.03
25420;BME280;13354;48.174;11.566;2023-05-07T12:32:05;95631.38;;;25.72;39.60
25420;BME280;13354;48.174;11.566;2023-05-07T12:34:31;95629.63;;;25.33;40.57
25420;BME280;13354;48.174;11.566;2023-05-07T12:36:56;95629.97;;;25.56;40.50
25420;BME280;13354;48.174;11.566;2023-05-07T12:39:21;95630.59;;;25.71;39.18
25420;BME280;13354;48.174;11.566;2023-05-07T12:41:56;95628.16;;;25.46;38.85
25420;BME280;13354;48.174;11.566;2023-05-07T12:44:23;95618.00;;;25.57;38.53
25420;BME280;13354;48.174;11.566;2023-05-07T12:46:49;95620.75;;;25.27;38.50
25420;BME280;13354;48.174;11.566;2023-05-07T12:49:14;95631.34;;;25.53;38.81
25420;BME280;13354;48.174;11.566;2023-05-07T12:51:39;95610.16;;;25.55;38.35